Time;durP1;ratioP1;P1;durP2;ratioP2;P2;SDS_P1;SDS_P2;PMS_P1;PMS_P2;Temp;Humidity;BMP_temperature;BMP_pressure;BME280_temperature;BME280_humidity;BME280_pressure;Samples;Min_cycle;Max_cycle;Signal;HPM_P1;HPM_P2
2022/02/28 00:02:12;;;;;;;4.05;3.45;;;;;;;4.52;76.13;103078.31;5046441;28;20346;-77
2022/02/28 00:04:38;;;;;;;4.88;3.15;;;;;;;4.52;76.51;103072.25;5019121;28;20045;-77
2022/02/28 00:07:03;;;;;;;5.47;3.65;;;;;;;4.50;75.83;103081.75;5036292;28;20041;-77
2022/02/28 00:09:29;;;;;;;7.20;3.97;;;;;;;4.51;76.19;103088.66;5036287;28;20063;-77
2022/02/28 00:11:54;;;;;;;3.85;3.40;;;;;;;4.46;75.05;103090.28;5036324;28;20462;-77
2022/02/28 00:14:21;;;;;;;4.53;3.40;;;;;;;4.45;75.73;103089.41;5003720;28;20052;-77
2022/02/28 00:16:47;;;;;;;6.55;3.47;;;;;;;4.46;75.81;103091.19;5003561;28;20390;-77
2022/02/28 00:19:12;;;;;;;4.03;3.50;;;;;;;4.45;76.17;103084.22;5038029;28;20029;-77
2022/02/28 00:21:38;;;;;;;3.35;3.00;;;;;;;4.45;76.10;103081.63;5018749;28;20075;-77
2022/02/28 00:24:03;;;;;;;6.13;3.30;;;;;;;4.44;76.01;103079.91;5020178;28;20063;-77
2022/02/28 00:26:29;;;;;;;6.32;3.45;;;;;;;4.43;75.96;103085.91;5015212;28;20044;-77
2022/02/28 00:28:54;;;;;;;6.68;3.92;;;;;;;4.40;75.83;103086.75;5035571;28;20371;-77
2022/02/28 00:31:20;;;;;;;6.25;3.55;;;;;;;4.40;76.06;103091.03;5018545;28;20065;-77
2022/02/28 00:33:45;;;;;;;3.92;3.20;;;;;;;4.39;75.96;103087.56;4985963;28;20320;-77
2022/02/28 00:36:11;;;;;;;6.55;3.55;;;;;;;4.38;76.10;103087.53;5035896;28;20037;-77
2022/02/28 00:38:36;;;;;;;4.90;3.45;;;;;;;4.36;75.98;103090.09;5002173;28;20097;-77
2022/02/28 00:41:02;;;;;;;4.28;3.88;;;;;;;4.35;76.28;103087.50;5036266;28;20038;-77
2022/02/28 00:43:27;;;;;;;4.43;3.38;;;;;;;4.34;76.38;103086.59;5018735;28;20025;-77
2022/02/28 00:45:53;;;;;;;3.45;3.13;;;;;;;4.32;76.23;103092.59;5018693;28;20041;-77
2022/02/28 00:48:19;;;;;;;5.00;3.42;;;;;;;4.31;76.17;103096.03;5036581;28;20049;-77
2022/02/28 00:50:45;;;;;;;6.60;3.88;;;;;;;4.28;75.82;103096.84;5036541;28;20038;-77
2022/02/28 00:53:10;;;;;;;3.90;3.50;;;;;;;4.26;75.61;103106.31;5018439;28;20057;-77
2022/02/28 00:55:36;;;;;;;3.72;3.42;;;;;;;4.25;75.46;103099.38;5019155;28;20067;-77
2022/02/28 00:58:02;;;;;;;7.13;4.05;;;;;;;4.23;75.63;103107.13;5018374;28;20383;-77
2022/02/28 01:00:28;;;;;;;4.93;3.38;;;;;;;4.21;75.45;103115.72;5036057;28;20029;-77
2022/02/28 01:02:54;;;;;;;6.43;3.80;;;;;;;4.18;75.31;103111.34;5018449;28;20033;-77
2022/02/28 01:05:20;;;;;;;4.45;3.47;;;;;;;4.16;75.16;103120.78;5035943;28;20111;-77
2022/02/28 01:07:47;;;;;;;3.95;3.42;;;;;;;4.14;75.15;103119.88;5036351;28;20041;-77
2022/02/28 01:10:14;;;;;;;4.75;3.83;;;;;;;4.12;75.08;103111.19;5018285;28;20079;-77
2022/02/28 01:12:40;;;;;;;6.55;3.75;;;;;;;4.11;75.00;103118.94;5036835;28;20091;-77
2022/02/28 01:15:08;;;;;;;4.43;3.80;;;;;;;4.09;75.08;103113.72;5037336;28;20042;-77
2022/02/28 01:17:34;;;;;;;5.82;3.90;;;;;;;4.07;75.00;103115.38;5019276;28;20053;-77
2022/02/28 01:19:59;;;;;;;4.20;3.13;;;;;;;4.05;75.03;103119.66;5002887;28;20225;-77
2022/02/28 01:22:25;;;;;;;4.85;3.33;;;;;;;4.03;74.83;103123.94;5037540;28;20029;-77
2022/02/28 01:24:51;;;;;;;4.50;3.28;;;;;;;4.01;74.47;103128.22;5018819;28;20057;-77
2022/02/28 01:27:17;;;;;;;4.07;3.63;;;;;;;3.97;74.31;103127.28;5036916;28;20041;-77
2022/02/28 01:29:43;;;;;;;4.85;3.78;;;;;;;3.96;74.51;103125.50;5037124;28;20040;-77
2022/02/28 01:32:08;;;;;;;3.88;2.78;;;;;;;3.94;74.84;103122.00;5018942;28;20229;-77
2022/02/28 01:34:34;;;;;;;5.70;3.65;;;;;;;3.95;75.00;103125.50;5036994;28;20056;-77
2022/02/28 01:36:59;;;;;;;6.65;3.58;;;;;;;3.92;74.88;103118.50;5003140;28;20051;-77
2022/02/28 01:39:24;;;;;;;8.25;3.70;;;;;;;3.90;75.25;103115.00;5022994;28;20049;-76
2022/02/28 01:41:50;;;;;;;3.85;3.17;;;;;;;3.91;75.07;103119.38;5022533;28;20044;-77
2022/02/28 01:44:15;;;;;;;3.75;3.38;;;;;;;3.89;75.29;103114.97;5040395;28;20045;-77
2022/02/28 01:46:41;;;;;;;4.15;3.75;;;;;;;3.88;75.33;103114.09;5022913;28;20112;-77
2022/02/28 01:49:07;;;;;;;4.80;3.65;;;;;;;3.86;75.48;103113.19;5022558;28;20044;-77
2022/02/28 01:51:37;;;;;;;6.97;4.03;;;;;;;3.85;75.18;103116.63;5022378;28;20091;-77
2022/02/28 01:54:04;;;;;;;6.10;3.72;;;;;;;3.84;75.85;103113.16;5006333;28;20045;-76
2022/02/28 01:56:30;;;;;;;6.75;4.22;;;;;;;3.84;75.72;103114.88;5040015;28;20102;-76
2022/02/28 01:58:55;;;;;;;3.53;3.17;;;;;;;3.82;75.22;103116.53;5022121;28;20029;-77
2022/02/28 02:01:20;;;;;;;5.78;4.20;;;;;;;3.79;75.14;103106.97;5040125;28;20037;-77
2022/02/28 02:03:46;;;;;;;6.82;3.38;;;;;;;3.78;75.04;103118.22;5006098;28;20091;-77
2022/02/28 02:06:12;;;;;;;3.28;2.95;;;;;;;3.76;74.99;103106.03;5039656;28;20040;-76
2022/02/28 02:08:38;;;;;;;3.83;3.20;;;;;;;3.75;74.86;103112.94;5022262;28;20041;-76
2022/02/28 02:11:04;;;;;;;4.32;3.78;;;;;;;3.73;75.17;103117.22;5021949;28;20048;-77
2022/02/28 02:13:32;;;;;;;4.47;3.28;;;;;;;3.73;75.57;103112.03;5022060;28;20039;-76
2022/02/28 02:15:59;;;;;;;3.85;3.53;;;;;;;3.73;75.77;103116.31;5039721;28;20198;-77
2022/02/28 02:18:25;;;;;;;4.10;3.70;;;;;;;3.70;75.28;103109.34;5039949;28;20040;-77
2022/02/28 02:20:50;;;;;;;4.18;3.05;;;;;;;3.69;75.67;103106.72;5005493;28;20033;-77
2022/02/28 02:23:16;;;;;;;4.25;3.70;;;;;;;3.69;75.83;103111.91;5039690;28;20053;-77
2022/02/28 02:25:43;;;;;;;4.50;3.75;;;;;;;3.67;76.16;103101.50;5021941;28;20025;-76
2022/02/28 02:28:12;;;;;;;6.25;3.80;;;;;;;3.67;76.00;103111.00;5022267;28;20037;-76
2022/02/28 02:30:37;;;;;;;4.55;3.25;;;;;;;3.64;75.85;103107.50;5021874;28;20054;-77
2022/02/28 02:33:04;;;;;;;4.05;3.35;;;;;;;3.62;75.90;103114.34;5021817;28;20033;-77
2022/02/28 02:35:29;;;;;;;3.95;3.63;;;;;;;3.62;75.73;103114.34;5022013;28;20052;-77
2022/02/28 02:37:55;;;;;;;4.47;3.35;;;;;;;3.60;75.64;103113.44;5021767;28;20037;-77
2022/02/28 02:40:20;;;;;;;3.80;3.40;;;;;;;3.61;75.51;103106.53;5021795;28;20374;-76
2022/02/28 02:42:46;;;;;;;3.92;3.03;;;;;;;3.59;75.73;103109.09;5039364;28;20037;-76
2022/02/28 02:45:11;;;;;;;4.75;3.78;;;;;;;3.57;75.55;103108.19;5039067;28;20041;-76
2022/02/28 02:47:37;;;;;;;4.32;3.70;;;;;;;3.55;75.60;103104.69;5021666;28;20344;-77
2022/02/28 02:50:04;;;;;;;3.95;3.03;;;;;;;3.55;75.54;103101.22;5038142;28;20104;-77
2022/02/28 02:52:30;;;;;;;5.97;3.80;;;;;;;3.53;75.32;103106.38;5039479;28;20040;-77
2022/02/28 02:54:55;;;;;;;4.53;3.42;;;;;;;3.52;75.39;103104.59;5021167;28;20037;-76
2022/02/28 02:57:21;;;;;;;5.28;3.50;;;;;;;3.51;75.36;103101.97;5021661;28;20140;-77
2022/02/28 02:59:47;;;;;;;5.97;3.83;;;;;;;3.50;75.56;103095.03;5021682;28;20033;-76
2022/02/28 03:02:12;;;;;;;4.85;3.58;;;;;;;3.49;76.06;103101.03;5021246;28;20037;-76
2022/02/28 03:04:38;;;;;;;5.00;3.67;;;;;;;3.48;76.07;103102.78;5038940;28;20045;-76
2022/02/28 03:07:16;;;;;;;5.05;3.05;;;;;;;3.46;75.83;103089.78;5038811;28;20041;-76
2022/02/28 03:09:43;;;;;;;4.57;3.40;;;;;;;3.45;75.60;103089.72;5039038;28;20332;-76
2022/02/28 03:12:08;;;;;;;3.78;3.35;;;;;;;3.44;75.90;103088.00;5020963;28;20276;-76
2022/02/28 03:14:33;;;;;;;4.97;3.67;;;;;;;3.42;75.80;103087.06;5020993;28;20040;-76
2022/02/28 03:16:59;;;;;;;4.38;3.47;;;;;;;3.42;75.77;103094.81;5004514;28;20041;-76
2022/02/28 03:19:24;;;;;;;5.75;3.67;;;;;;;3.40;75.70;103094.81;5020901;28;20160;-76
2022/02/28 03:21:50;;;;;;;6.65;3.97;;;;;;;3.39;75.75;103087.88;5021084;28;20057;-76
2022/02/28 03:24:15;;;;;;;4.78;3.85;;;;;;;3.37;75.90;103086.97;5038494;28;20044;-76
2022/02/28 03:26:41;;;;;;;5.20;3.03;;;;;;;3.38;76.11;103085.22;5020972;28;20349;-76
2022/02/28 03:29:06;;;;;;;3.40;3.10;;;;;;;3.37;75.69;103093.84;5038450;28;20036;-76
2022/02/28 03:31:32;;;;;;;3.97;3.08;;;;;;;3.34;75.64;103096.38;5038552;28;20266;-76
2022/02/28 03:33:57;;;;;;;3.28;2.97;;;;;;;3.33;75.77;103094.59;5020498;28;20044;-76
2022/02/28 03:36:22;;;;;;;7.25;4.07;;;;;;;3.32;75.53;103087.69;5038422;28;20227;-76
2022/02/28 03:38:48;;;;;;;4.43;3.47;;;;;;;3.30;75.39;103086.78;5020510;28;20349;-76
2022/02/28 03:41:13;;;;;;;5.20;3.40;;;;;;;3.28;75.25;103085.84;5020878;28;20237;-76
2022/02/28 03:43:38;;;;;;;3.88;3.42;;;;;;;3.25;75.29;103084.91;5020595;28;20036;-76
2022/02/28 03:46:04;;;;;;;4.15;3.75;;;;;;;3.24;75.70;103080.59;5020527;28;20091;-76
2022/02/28 03:48:29;;;;;;;6.10;3.67;;;;;;;3.24;76.09;103088.34;5020526;28;20114;-76
2022/02/28 03:50:55;;;;;;;3.70;3.40;;;;;;;3.23;76.18;103088.31;5038524;28;20128;-77
2022/02/28 03:53:20;;;;;;;4.13;3.72;;;;;;;3.22;76.10;103086.53;5021079;28;20233;-77
2022/02/28 03:55:45;;;;;;;5.82;3.33;;;;;;;3.21;76.34;103085.69;5038776;28;20283;-77
2022/02/28 03:58:11;;;;;;;3.80;3.47;;;;;;;3.22;76.40;103076.19;5038307;28;20044;-77
2022/02/28 04:00:36;;;;;;;4.00;3.08;;;;;;;3.21;76.38;103080.50;5038511;28;20021;-77
2022/02/28 04:03:02;;;;;;;6.57;4.32;;;;;;;3.20;76.63;103076.19;5038425;28;20186;-77
2022/02/28 04:05:27;;;;;;;6.07;3.55;;;;;;;3.19;76.54;103070.97;5038622;28;20083;-77
2022/02/28 04:07:53;;;;;;;4.07;3.63;;;;;;;3.17;76.86;103070.91;5020536;28;20340;-77
2022/02/28 04:10:18;;;;;;;4.30;3.90;;;;;;;3.17;77.19;103068.31;5004271;28;20043;-77
2022/02/28 04:12:44;;;;;;;7.18;3.90;;;;;;;3.15;76.75;103062.22;5021149;28;20282;-77
2022/02/28 04:15:10;;;;;;;6.60;4.07;;;;;;;3.14;76.63;103070.81;5020575;28;20103;-77
2022/02/28 04:17:35;;;;;;;4.28;3.72;;;;;;;3.14;76.65;103059.59;5038702;28;20041;-77
2022/02/28 04:20:03;;;;;;;5.97;4.30;;;;;;;3.13;76.82;103056.13;5037900;28;20288;-77
2022/02/28 04:22:29;;;;;;;4.80;3.80;;;;;;;3.12;77.11;103059.56;5038209;28;20065;-77
2022/02/28 04:24:55;;;;;;;7.88;3.60;;;;;;;3.11;76.56;103057.81;5020483;28;20292;-77
2022/02/28 04:27:20;;;;;;;4.10;3.33;;;;;;;3.10;76.66;103060.38;5020653;28;20033;-77
2022/02/28 04:29:45;;;;;;;5.78;4.35;;;;;;;3.07;76.50;103048.19;5020630;28;20042;-77
2022/02/28 04:32:11;;;;;;;5.00;4.25;;;;;;;3.07;76.65;103061.13;5020212;28;20033;-77
2022/02/28 04:34:36;;;;;;;5.95;4.38;;;;;;;3.04;76.67;103049.00;5020829;28;20100;-77
2022/02/28 04:37:02;;;;;;;4.75;4.30;;;;;;;3.02;76.46;103055.84;5020064;28;20037;-77
2022/02/28 04:39:27;;;;;;;3.97;3.58;;;;;;;2.99;76.02;103055.78;5020297;28;20100;-77
2022/02/28 04:41:52;;;;;;;6.53;4.30;;;;;;;2.97;75.91;103052.28;5037869;28;20225;-77
2022/02/28 04:44:18;;;;;;;5.40;4.00;;;;;;;2.95;75.94;103053.94;5020356;28;20380;-77
2022/02/28 04:46:43;;;;;;;6.15;4.20;;;;;;;2.94;76.02;103048.72;4988042;28;20332;-77
2022/02/28 04:49:09;;;;;;;4.18;3.78;;;;;;;2.93;75.92;103047.84;5020147;28;20113;-77
2022/02/28 04:51:34;;;;;;;7.05;4.07;;;;;;;2.92;75.96;103050.41;5020720;28;20292;-77
2022/02/28 04:54:00;;;;;;;4.03;3.63;;;;;;;2.88;75.55;103049.44;5037557;28;20136;-77
2022/02/28 04:56:25;;;;;;;6.85;4.32;;;;;;;2.86;75.75;103051.13;5037915;28;20104;-77
2022/02/28 04:58:51;;;;;;;5.03;3.97;;;;;;;2.85;75.41;103055.38;5037788;28;20338;-77
2022/02/28 05:01:17;;;;;;;7.07;4.43;;;;;;;2.82;75.23;103055.34;5020150;28;20041;-77
2022/02/28 05:03:42;;;;;;;5.72;4.35;;;;;;;2.81;75.86;103047.53;5020253;28;20021;-77
2022/02/28 05:06:07;;;;;;;5.57;4.32;;;;;;;2.81;76.01;103048.38;5020167;28;20033;-77
2022/02/28 05:08:33;;;;;;;6.45;4.60;;;;;;;2.79;76.09;103055.25;5037569;28;20299;-77
2022/02/28 05:10:58;;;;;;;6.50;4.00;;;;;;;2.79;76.10;103055.25;5020128;28;20367;-77
2022/02/28 05:13:24;;;;;;;4.22;3.83;;;;;;;2.79;76.10;103054.38;5040324;28;20041;-77
2022/02/28 05:15:49;;;;;;;4.38;3.97;;;;;;;2.77;76.16;103054.31;5041500;28;20061;-77
2022/02/28 05:18:14;;;;;;;4.53;3.72;;;;;;;2.77;76.07;103056.91;5023912;28;20026;-77
2022/02/28 05:20:40;;;;;;;7.32;4.22;;;;;;;2.75;75.86;103056.00;5024052;28;20021;-77
2022/02/28 05:23:07;;;;;;;4.68;3.60;;;;;;;2.75;76.27;103058.59;5007622;28;20634;-77
2022/02/28 05:25:32;;;;;;;5.10;3.45;;;;;;;2.74;76.39;103056.81;4991270;28;20252;-77
2022/02/28 05:27:57;;;;;;;7.97;4.03;;;;;;;2.74;76.18;103059.41;5007137;28;20037;-77
2022/02/28 05:30:23;;;;;;;3.83;3.05;;;;;;;2.73;76.28;103052.50;5041189;28;20037;-77
2022/02/28 05:32:48;;;;;;;6.80;3.90;;;;;;;2.73;76.36;103059.34;5023486;28;20033;-77
2022/02/28 05:35:14;;;;;;;6.20;4.20;;;;;;;2.72;76.66;103062.81;5007122;28;20365;-77
2022/02/28 05:37:40;;;;;;;4.20;3.47;;;;;;;2.72;76.59;103062.81;5023612;28;20416;-77
2022/02/28 05:40:08;;;;;;;3.80;3.17;;;;;;;2.71;76.73;103069.69;5023321;28;20033;-77
2022/02/28 05:42:34;;;;;;;4.35;3.47;;;;;;;2.71;76.84;103071.38;5041128;28;20329;-77
2022/02/28 05:44:59;;;;;;;6.03;4.13;;;;;;;2.69;77.08;103074.81;5040799;28;20332;-77
2022/02/28 05:47:24;;;;;;;5.85;3.80;;;;;;;2.68;76.85;103073.06;5023189;28;20053;-77
2022/02/28 05:49:50;;;;;;;3.42;3.13;;;;;;;2.67;76.68;103066.16;5023136;28;20030;-77
2022/02/28 05:52:16;;;;;;;5.75;3.65;;;;;;;2.65;76.87;103072.97;5040871;28;20524;-77
2022/02/28 05:54:41;;;;;;;4.78;4.00;;;;;;;2.66;77.18;103081.63;5040809;28;20059;-77
2022/02/28 05:57:07;;;;;;;5.43;3.85;;;;;;;2.65;77.13;103079.84;5007091;28;20033;-77
2022/02/28 05:59:32;;;;;;;3.97;3.58;;;;;;;2.64;77.04;103084.16;5023145;28;20049;-77
2022/02/28 06:01:58;;;;;;;5.00;3.80;;;;;;;2.64;77.03;103088.47;5006445;28;20029;-77
2022/02/28 06:04:24;;;;;;;4.93;3.67;;;;;;;2.62;77.00;103090.09;5040841;28;20029;-77
2022/02/28 06:06:49;;;;;;;7.45;3.85;;;;;;;2.61;76.96;103086.66;5021086;28;20041;-77
2022/02/28 06:09:14;;;;;;;6.85;4.15;;;;;;;2.59;76.96;103090.91;5021618;28;20051;-77
2022/02/28 06:11:40;;;;;;;5.22;3.78;;;;;;;2.59;77.10;103095.22;5021410;28;20041;-77
2022/02/28 06:14:05;;;;;;;5.40;3.90;;;;;;;2.57;76.94;103097.75;5020621;28;20033;-77
2022/02/28 06:16:31;;;;;;;7.05;3.53;;;;;;;2.58;77.10;103101.22;5039752;28;20095;-77
2022/02/28 06:18:56;;;;;;;4.38;3.88;;;;;;;2.58;77.32;103096.03;5037845;28;20467;-77
2022/02/28 06:21:22;;;;;;;3.75;3.33;;;;;;;2.57;77.56;103095.16;5038954;28;20037;-77
2022/02/28 06:23:47;;;;;;;4.15;3.47;;;;;;;2.58;77.41;103101.22;5019657;28;20061;-77
2022/02/28 06:26:13;;;;;;;4.68;3.70;;;;;;;2.58;77.69;103090.84;5020590;28;20307;-77
2022/02/28 06:28:39;;;;;;;3.90;3.58;;;;;;;2.58;77.70;103096.91;5039063;28;20045;-77
2022/02/28 06:31:05;;;;;;;3.90;3.00;;;;;;;2.58;77.64;103096.91;5038448;28;20390;-77
2022/02/28 06:33:31;;;;;;;8.75;3.95;;;;;;;2.57;77.77;103097.75;5037637;28;20060;-77
2022/02/28 06:35:56;;;;;;;3.20;2.70;;;;;;;2.59;77.76;103103.84;5037459;28;20347;-77
2022/02/28 06:38:22;;;;;;;3.75;2.85;;;;;;;2.60;78.03;103110.78;5037754;28;20075;-77
2022/02/28 06:40:49;;;;;;;3.50;3.20;;;;;;;2.60;77.92;103105.63;5037531;28;20048;-77
2022/02/28 06:43:16;;;;;;;3.60;3.30;;;;;;;2.60;78.09;103108.19;5038601;28;20033;-77
2022/02/28 06:45:43;;;;;;;3.45;3.15;;;;;;;2.61;77.68;103115.09;5038759;28;20041;-77
2022/02/28 06:48:09;;;;;;;3.78;2.90;;;;;;;2.61;78.13;103109.06;5038137;28;20060;-77
2022/02/28 06:50:35;;;;;;;3.38;2.75;;;;;;;2.61;78.12;103111.66;5038268;28;20408;-77
2022/02/28 06:53:00;;;;;;;4.55;2.78;;;;;;;2.62;78.19;103121.16;5038399;28;20037;-77
2022/02/28 06:55:26;;;;;;;3.28;2.83;;;;;;;2.64;78.05;103119.50;5038593;28;20228;-77
2022/02/28 06:57:52;;;;;;;3.55;2.63;;;;;;;2.62;78.08;103123.75;5038216;28;20112;-77
2022/02/28 07:00:17;;;;;;;3.50;3.17;;;;;;;2.63;78.13;103120.34;5020191;28;20025;-77
2022/02/28 07:02:43;;;;;;;4.00;2.70;;;;;;;2.63;78.21;103113.44;5038316;28;20284;-77
2022/02/28 07:05:08;;;;;;;4.93;4.20;;;;;;;2.58;76.90;103114.16;5036875;28;20049;-77
2022/02/28 07:07:35;;;;;;;5.55;4.05;;;;;;;2.58;77.69;103127.06;5038795;28;20037;-77
2022/02/28 07:10:02;;;;;;;3.65;3.35;;;;;;;2.58;78.10;103119.31;5037981;28;20049;-77
2022/02/28 07:12:27;;;;;;;4.47;3.45;;;;;;;2.59;78.20;103127.13;5036954;28;20041;-77
2022/02/28 07:14:53;;;;;;;3.15;2.85;;;;;;;2.60;78.54;103122.81;5037673;28;20229;-77
2022/02/28 07:17:18;;;;;;;3.80;3.40;;;;;;;2.59;78.46;103124.53;5037792;28;20060;-77
2022/02/28 07:19:43;;;;;;;3.95;3.55;;;;;;;2.60;78.21;103131.47;5036643;28;20253;-77
2022/02/28 07:22:09;;;;;;;5.68;3.80;;;;;;;2.61;78.58;103140.13;5036433;28;20045;-77
2022/02/28 07:24:34;;;;;;;5.47;3.55;;;;;;;2.60;78.30;103133.16;5036126;28;20095;-77
2022/02/28 07:27:01;;;;;;;5.18;4.22;;;;;;;2.63;78.58;103148.78;5037514;28;20158;-77
2022/02/28 07:29:27;;;;;;;3.97;3.58;;;;;;;2.63;78.78;103147.06;5036515;28;20076;-77
2022/02/28 07:31:52;;;;;;;6.18;3.85;;;;;;;2.64;78.91;103151.44;5037326;28;20059;-77
2022/02/28 07:34:18;;;;;;;3.75;3.45;;;;;;;2.66;78.87;103148.91;5017349;28;20344;-77
2022/02/28 07:36:43;;;;;;;5.95;3.75;;;;;;;2.67;78.94;103153.22;5036630;28;20064;-77
2022/02/28 07:39:09;;;;;;;4.28;3.88;;;;;;;2.69;79.01;103151.53;5037010;28;20033;-77
2022/02/28 07:41:34;;;;;;;5.32;4.30;;;;;;;2.66;79.07;103152.34;5037510;28;20284;-77
2022/02/28 07:43:59;;;;;;;6.22;3.97;;;;;;;2.70;79.05;103158.50;5015017;28;20033;-77
2022/02/28 07:46:25;;;;;;;4.53;3.85;;;;;;;2.70;79.50;103163.66;5039182;28;20040;-77
2022/02/28 07:48:50;;;;;;;5.25;4.43;;;;;;;2.71;79.34;103160.25;4975048;28;20038;-77
2022/02/28 07:51:16;;;;;;;6.13;4.72;;;;;;;2.72;79.44;103158.53;5019242;28;20052;-77
2022/02/28 07:53:41;;;;;;;4.15;3.78;;;;;;;2.73;79.43;103166.34;5035620;28;20340;-77
2022/02/28 07:56:07;;;;;;;4.50;4.10;;;;;;;2.75;79.43;103164.69;5035567;28;20045;-77
2022/02/28 07:58:32;;;;;;;6.95;3.88;;;;;;;2.76;79.41;103155.19;5036716;28;20052;-77
2022/02/28 08:00:58;;;;;;;5.97;4.30;;;;;;;2.74;79.04;103159.47;5018278;28;20026;-77
2022/02/28 08:03:23;;;;;;;8.82;5.07;;;;;;;2.76;79.38;103160.38;5035381;28;20033;-77
2022/02/28 08:05:49;;;;;;;9.27;5.85;;;;;;;2.72;78.21;103162.00;5036644;28;20112;-77
2022/02/28 08:08:14;;;;;;;6.18;5.00;;;;;;;2.77;78.74;103156.97;5018460;28;20057;-77
2022/02/28 08:10:40;;;;;;;6.18;4.85;;;;;;;2.78;79.32;103153.53;5036488;28;20164;-77
2022/02/28 08:13:06;;;;;;;6.10;4.70;;;;;;;2.81;79.27;103153.63;5018595;28;20056;-77
2022/02/28 08:15:31;;;;;;;4.90;4.40;;;;;;;2.81;79.09;103154.50;5014962;28;20325;-77
2022/02/28 08:17:57;;;;;;;7.35;4.80;;;;;;;2.80;78.43;103162.22;5018712;28;20044;-77
2022/02/28 08:20:22;;;;;;;5.20;4.35;;;;;;;2.79;77.83;103158.75;5018997;28;20047;-77
2022/02/28 08:22:48;;;;;;;4.90;4.45;;;;;;;2.82;78.46;103165.72;5032737;28;20040;-77
2022/02/28 08:25:13;;;;;;;8.02;4.30;;;;;;;2.83;78.61;103162.31;5036055;28;20033;-77
2022/02/28 08:27:39;;;;;;;4.63;4.22;;;;;;;2.85;79.00;103166.69;5018726;28;20048;-77
2022/02/28 08:30:05;;;;;;;5.20;4.22;;;;;;;2.87;78.98;103162.47;5028300;28;20033;-76
2022/02/28 08:32:30;;;;;;;6.43;4.13;;;;;;;2.90;79.51;103156.47;5033924;28;20045;-77
2022/02/28 08:34:56;;;;;;;4.97;4.10;;;;;;;2.93;79.40;103150.50;5035934;28;20108;-76
2022/02/28 08:37:21;;;;;;;6.07;5.13;;;;;;;2.93;79.61;103150.50;5017824;28;20036;-77
2022/02/28 08:39:46;;;;;;;6.93;5.50;;;;;;;2.95;79.83;103152.31;5018980;28;20253;-77
2022/02/28 08:42:12;;;;;;;5.13;4.63;;;;;;;2.95;79.67;103143.66;5030151;28;20033;-77
2022/02/28 08:44:38;;;;;;;4.93;4.43;;;;;;;2.95;78.95;103143.66;5034234;28;20079;-77
2022/02/28 08:47:04;;;;;;;7.25;6.00;;;;;;;2.93;77.19;103141.03;5033135;28;20060;-77
2022/02/28 08:49:29;;;;;;;6.32;5.20;;;;;;;2.96;78.35;103146.28;5020551;28;20328;-77
2022/02/28 08:51:55;;;;;;;8.07;4.95;;;;;;;2.97;78.63;103136.81;5020477;28;20039;-77
2022/02/28 08:54:21;;;;;;;6.35;5.28;;;;;;;2.99;78.92;103130.84;5021068;28;20037;-77
2022/02/28 08:56:46;;;;;;;7.13;5.20;;;;;;;3.02;79.21;103127.44;5007332;28;20026;-77
2022/02/28 08:59:12;;;;;;;7.68;5.63;;;;;;;3.03;78.53;103121.44;5039974;28;20049;-77
2022/02/28 09:01:37;;;;;;;10.52;6.25;;;;;;;3.03;78.42;103127.50;5038339;28;20143;-77
2022/02/28 09:04:03;;;;;;;6.60;4.95;;;;;;;3.07;78.77;103120.69;5020970;28;20112;-77
2022/02/28 09:06:28;;;;;;;7.05;5.90;;;;;;;3.10;79.20;103112.16;5038818;28;20040;-77
2022/02/28 09:08:54;;;;;;;5.53;4.88;;;;;;;3.11;78.89;103119.06;5036678;28;20048;-77
2022/02/28 09:11:21;;;;;;;5.15;4.65;;;;;;;3.15;78.95;103115.75;5036541;28;20044;-77
2022/02/28 09:13:48;;;;;;;6.88;5.43;;;;;;;3.17;78.99;103108.88;5042060;28;20030;-77
2022/02/28 09:16:13;;;;;;;7.38;5.13;;;;;;;3.20;78.98;103096.00;5039134;28;20361;-76
2022/02/28 09:18:38;;;;;;;5.53;4.95;;;;;;;3.21;78.54;103111.56;5039798;28;20061;-77
2022/02/28 09:21:04;;;;;;;5.88;5.32;;;;;;;3.25;78.48;103104.75;5039515;28;20033;-77
2022/02/28 09:23:29;;;;;;;7.05;5.88;;;;;;;3.26;77.62;103109.13;5039529;28;20057;-77
2022/02/28 09:25:55;;;;;;;5.68;5.05;;;;;;;3.29;77.78;103114.34;5021414;28;20038;-77
2022/02/28 09:28:20;;;;;;;5.72;5.03;;;;;;;3.33;78.07;103120.50;5039691;28;20080;-77
2022/02/28 09:30:45;;;;;;;10.75;6.18;;;;;;;3.34;78.28;103111.91;5021459;28;20025;-77
2022/02/28 09:33:11;;;;;;;7.78;5.78;;;;;;;3.36;78.38;103105.03;5021205;28;20056;-77
2022/02/28 09:35:37;;;;;;;6.30;5.57;;;;;;;3.39;78.68;103105.13;5039651;28;20123;-77
2022/02/28 09:38:03;;;;;;;8.60;5.40;;;;;;;3.41;78.40;103111.22;5033655;28;20052;-77
2022/02/28 09:40:31;;;;;;;7.75;5.88;;;;;;;3.41;76.85;103106.91;5038723;28;20280;-77
2022/02/28 09:42:59;;;;;;;7.50;5.68;;;;;;;3.44;77.29;103109.59;5039563;28;20025;-77
2022/02/28 09:45:25;;;;;;;9.73;5.83;;;;;;;3.47;76.80;103098.41;5039763;28;20245;-77
2022/02/28 09:47:53;;;;;;;5.55;5.05;;;;;;;3.51;77.35;103101.97;5041212;28;20284;-77
2022/02/28 09:50:18;;;;;;;6.85;6.15;;;;;;;3.51;75.95;103089.91;5041121;28;20067;-77
2022/02/28 09:52:44;;;;;;;6.90;6.20;;;;;;;3.52;75.00;103088.19;5040568;28;20049;-77
2022/02/28 09:55:10;;;;;;;7.45;6.47;;;;;;;3.55;74.76;103083.09;5039199;28;20049;-77
2022/02/28 09:57:36;;;;;;;10.57;6.25;;;;;;;3.56;75.43;103090.88;5040869;28;20045;-77
2022/02/28 10:00:03;;;;;;;12.38;5.50;;;;;;;3.60;75.65;103086.63;5029807;28;20033;-77
2022/02/28 10:02:28;;;;;;;9.32;5.80;;;;;;;3.63;75.59;103090.19;5039270;28;20095;-77
2022/02/28 10:04:54;;;;;;;6.72;5.65;;;;;;;3.64;74.21;103106.63;5039801;28;20037;-77
2022/02/28 10:07:21;;;;;;;6.95;5.78;;;;;;;3.67;74.30;103106.69;5040056;28;20045;-77
2022/02/28 10:09:46;;;;;;;9.27;5.57;;;;;;;3.71;74.25;103105.03;5032831;28;20063;-77
2022/02/28 10:12:12;;;;;;;7.53;5.95;;;;;;;3.73;74.20;103099.06;5040036;28;20045;-77
2022/02/28 10:14:37;;;;;;;7.68;6.28;;;;;;;3.75;74.44;103101.72;5040328;28;20025;-77
2022/02/28 10:17:03;;;;;;;7.68;5.90;;;;;;;3.77;74.05;103103.47;5039931;28;20351;-77
2022/02/28 10:19:32;;;;;;;5.60;5.10;;;;;;;3.82;73.79;103108.75;5040009;28;20049;-77
2022/02/28 10:22:03;;;;;;;6.40;5.07;;;;;;;3.83;73.76;103113.97;5022312;28;20056;-77
2022/02/28 10:24:39;;;;;;;12.20;6.47;;;;;;;3.86;72.95;103113.19;5040233;28;20041;-77
2022/02/28 10:27:06;;;;;;;10.48;6.40;;;;;;;3.91;72.77;103121.06;5038950;28;20026;-77
2022/02/28 10:29:38;;;;;;;6.20;5.25;;;;;;;3.93;72.12;103109.00;5040308;28;20092;-76
2022/02/28 10:32:06;;;;;;;6.40;5.68;;;;;;;3.97;71.45;103121.22;5039815;28;20091;-77
2022/02/28 10:35:59;;;;;;;7.75;5.65;;;;;;;4.00;70.99;103129.97;5031624;28;20049;-77
2022/02/28 10:37:20;;;;;;;;;;;;;;;4.04;71.09;103133.50;5030100;28;20356;-77
2022/02/28 10:39:57;;;;;;;7.10;5.45;;;;;;;4.09;71.02;103136.19;5038202;28;19989;-77
2022/02/28 10:42:24;;;;;;;9.88;6.40;;;;;;;4.10;70.48;103133.63;5038305;28;20040;-77
2022/02/28 10:45:17;;;;;;;8.52;5.93;;;;;;;4.17;68.90;103134.66;4990018;28;20033;-77
2022/02/28 10:47:47;;;;;;;11.70;6.25;;;;;;;4.23;68.68;103132.19;5034902;28;20039;-77
2022/02/28 10:50:12;;;;;;;11.20;5.50;;;;;;;4.29;68.98;103137.50;5038088;28;20041;-77
2022/02/28 10:52:54;;;;;;;7.68;5.78;;;;;;;4.36;68.08;103130.72;5020535;28;20021;-77
2022/02/28 10:55:30;;;;;;;6.65;5.90;;;;;;;4.45;68.32;103123.16;5035046;28;20063;-77
2022/02/28 10:58:07;;;;;;;8.50;5.97;;;;;;;4.55;68.79;103124.25;5035917;28;20044;-77
2022/02/28 11:00:52;;;;;;;15.13;6.60;;;;;;;4.61;68.88;103120.03;5036287;28;20355;-77
2022/02/28 11:03:18;;;;;;;9.50;5.63;;;;;;;4.67;68.96;103114.09;5017272;28;20229;-77
2022/02/28 11:05:57;;;;;;;9.40;6.38;;;;;;;4.73;69.04;103111.63;5037839;28;20030;-77
2022/02/28 11:08:25;;;;;;;10.27;5.93;;;;;;;4.77;69.14;103112.56;5019906;28;20033;-77
2022/02/28 11:10:52;;;;;;;10.15;5.82;;;;;;;4.79;69.34;103106.56;5011651;28;20069;-77
2022/02/28 11:13:18;;;;;;;10.95;6.95;;;;;;;4.85;69.05;103110.97;5037466;28;20041;-77
2022/02/28 11:15:43;;;;;;;7.60;6.55;;;;;;;4.91;68.49;103112.81;5037964;28;20305;-77
2022/02/28 11:18:20;;;;;;;8.25;5.97;;;;;;;4.97;68.40;103107.75;5019902;28;20044;-77
2022/02/28 11:20:48;;;;;;;9.35;6.28;;;;;;;5.03;68.83;103096.63;5037027;28;20065;-77
2022/02/28 11:23:18;;;;;;;10.23;6.07;;;;;;;5.08;68.08;103094.97;5036985;28;20045;-77
2022/02/28 11:25:45;;;;;;;10.20;6.03;;;;;;;5.13;67.82;103093.31;5037506;28;20041;-77
2022/02/28 11:28:10;;;;;;;6.53;5.75;;;;;;;5.19;68.49;103096.91;5019054;28;20037;-77
2022/02/28 11:30:35;;;;;;;7.55;5.93;;;;;;;5.27;67.89;103096.16;5034740;28;20359;-77